createdAt,value
2018-07-14T00:00:44.771Z,57.1
2018-07-14T00:01:34.296Z,57.1
2018-07-14T00:02:24.879Z,57.1
2018-07-14T00:03:14.146Z,57.1
2018-07-14T00:04:05.021Z,57.1
2018-07-14T00:04:54.820Z,57.1
2018-07-14T00:05:45.215Z,57.1
2018-07-14T00:06:35.192Z,57.1
2018-07-14T00:07:25.297Z,57
2018-07-14T00:08:15.367Z,57
2018-07-14T00:09:05.128Z,57
2018-07-14T00:09:55.356Z,57
2018-07-14T00:10:45.572Z,57
2018-07-14T00:11:35.605Z,57
2018-07-14T00:12:24.914Z,57
2018-07-14T00:13:14.976Z,56.9
2018-07-14T00:14:05.051Z,56.9
2018-07-14T00:14:55.395Z,56.9
2018-07-14T00:15:44.894Z,56.9
2018-07-14T00:16:35.258Z,56.9
2018-07-14T00:17:25.590Z,56.9
2018-07-14T00:18:15.641Z,56.9
2018-07-14T00:19:06.214Z,56.9
2018-07-14T00:19:55.234Z,56.9
2018-07-14T00:20:46.037Z,56.9
2018-07-14T00:21:36.069Z,56.9
2018-07-14T00:22:25.868Z,56.9
2018-07-14T00:23:16.465Z,56.9
2018-07-14T00:24:06.001Z,56.9
2018-07-14T00:24:56.314Z,56.8
2018-07-14T00:25:45.922Z,56.9
2018-07-14T00:26:36.036Z,56.8
2018-07-14T00:27:26.310Z,56.8
2018-07-14T00:28:16.406Z,56.8
2018-07-14T00:29:06.695Z,56.8
2018-07-14T00:29:56.752Z,56.8
2018-07-14T00:30:46.018Z,56.8
2018-07-14T00:31:36.126Z,56.8
2018-07-14T00:32:26.477Z,56.8
2018-07-14T00:33:15.952Z,56.8
2018-07-14T00:34:06.892Z,56.8
2018-07-14T00:34:56.608Z,56.8
2018-07-14T00:35:46.330Z,56.8
2018-07-14T00:36:36.948Z,56.8
2018-07-14T00:37:27.562Z,56.7
2018-07-14T00:38:16.244Z,56.8
2018-07-14T00:39:07.208Z,56.7
2018-07-14T00:39:57.524Z,56.7
2018-07-14T00:40:47.835Z,56.7
2018-07-14T00:41:37.889Z,56.7
2018-07-14T00:42:28.020Z,56.7
2018-07-14T00:43:18.049Z,56.7
2018-07-14T00:44:08.187Z,56.6
2018-07-14T00:44:58.210Z,56.6
2018-07-14T00:45:47.668Z,56.6
2018-07-14T00:46:38.287Z,56.6
2018-07-14T00:47:28.370Z,56.6
2018-07-14T00:48:18.440Z,56.6
2018-07-14T00:49:07.923Z,56.6
2018-07-14T00:49:57.738Z,56.6
2018-07-14T00:50:48.308Z,56.6
2018-07-14T00:51:38.643Z,56.6
2018-07-14T00:52:28.461Z,56.6
2018-07-14T00:53:17.667Z,56.6
2018-07-14T00:54:08.883Z,56.6
2018-07-14T00:54:59.059Z,56.6
2018-07-14T00:55:48.994Z,56.6
2018-07-14T00:56:39.027Z,56.5
2018-07-14T00:57:29.133Z,56.5
2018-07-14T00:58:18.681Z,56.5
2018-07-14T00:59:09.285Z,56.5
2018-07-14T00:59:59.063Z,56.5
2018-07-14T01:00:49.076Z,56.5
2018-07-14T01:01:39.235Z,56.5
2018-07-14T01:02:29.197Z,56.5
2018-07-14T01:03:19.298Z,56.5
2018-07-14T01:04:09.065Z,56.5
2018-07-14T01:04:59.471Z,56.4
2018-07-14T01:05:49.484Z,56.4
2018-07-14T01:06:39.074Z,56.4
2018-07-14T01:07:29.906Z,56.4
2018-07-14T01:08:19.471Z,56.4
2018-07-14T01:09:09.749Z,56.4
2018-07-14T01:09:59.528Z,56.4
2018-07-14T01:10:50.179Z,56.4
2018-07-14T01:11:39.674Z,56.4
2018-07-14T01:12:29.747Z,56.4
2018-07-14T01:13:19.764Z,56.4
2018-07-14T01:14:10.436Z,56.4
2018-07-14T01:15:00.491Z,56.4
2018-07-14T01:15:49.499Z,56.3
2018-07-14T01:16:39.756Z,56.3
2018-07-14T01:17:30.656Z,56.3
2018-07-14T01:18:20.450Z,56.3
2018-07-14T01:19:10.205Z,56.3
2018-07-14T01:20:00.298Z,56.3
2018-07-14T01:20:50.689Z,56.3
2018-07-14T01:21:40.989Z,56.3
2018-07-14T01:22:30.211Z,56.3
2018-07-14T01:23:21.083Z,56.3
2018-07-14T01:24:11.245Z,56.3
2018-07-14T01:25:00.407Z,56.3
2018-07-14T01:25:50.750Z,56.3
2018-07-14T01:26:41.135Z,56.3
2018-07-14T01:27:31.493Z,56.3
2018-07-14T01:28:21.574Z,56.3
2018-07-14T01:29:10.978Z,56.2
2018-07-14T01:30:01.328Z,56.2
2018-07-14T01:30:50.830Z,56.2
2018-07-14T01:31:40.911Z,56.2
2018-07-14T01:32:30.973Z,56.2
2018-07-14T01:33:21.849Z,56.2
2018-07-14T01:34:11.945Z,56.2
2018-07-14T01:35:01.993Z,56.2
2018-07-14T01:35:51.214Z,56.2
2018-07-14T01:36:41.296Z,56.1
2018-07-14T01:37:32.184Z,56.1
2018-07-14T01:38:21.743Z,56.1
2018-07-14T01:39:11.466Z,56.1
2018-07-14T01:40:01.254Z,56.1
2018-07-14T01:40:51.955Z,56.1
2018-07-14T01:41:42.290Z,56.1
2018-07-14T01:42:32.035Z,56.1
2018-07-14T01:43:22.135Z,56.1
2018-07-14T01:44:12.672Z,56.1
2018-07-14T01:45:02.541Z,56.1
2018-07-14T01:45:51.999Z,56.1
2018-07-14T01:46:42.914Z,56.1
2018-07-14T01:47:32.737Z,56.1
2018-07-14T01:48:22.463Z,56
2018-07-14T01:49:12.823Z,56
2018-07-14T01:50:02.872Z,56
2018-07-14T01:50:52.931Z,56
2018-07-14T01:51:43.029Z,56
2018-07-14T01:52:32.791Z,56
2018-07-14T01:53:23.445Z,56
2018-07-14T01:54:13.523Z,55.9
2018-07-14T01:55:03.578Z,55.9
2018-07-14T01:55:52.795Z,55.9
2018-07-14T01:56:43.436Z,55.9
2018-07-14T01:57:33.195Z,55.9
2018-07-14T01:58:23.319Z,55.9
2018-07-14T01:59:13.635Z,55.9
2018-07-14T02:00:03.684Z,55.9
2018-07-14T02:00:53.984Z,55.9
2018-07-14T02:01:44.080Z,55.9
2018-07-14T02:02:33.612Z,55.9
2018-07-14T02:03:23.698Z,55.9
2018-07-14T02:04:13.770Z,55.9
2018-07-14T02:05:03.879Z,55.9
2018-07-14T02:05:53.886Z,55.9
2018-07-14T02:06:44.190Z,55.9
2018-07-14T02:07:33.468Z,55.9
2018-07-14T02:08:23.812Z,55.8
2018-07-14T02:09:14.110Z,55.8
2018-07-14T02:10:03.958Z,55.8
2018-07-14T02:10:54.490Z,55.8
2018-07-14T02:11:44.554Z,55.8
2018-07-14T02:12:34.326Z,55.8
2018-07-14T02:13:25.006Z,55.8
2018-07-14T02:14:14.974Z,55.8
2018-07-14T02:15:05.055Z,55.8
2018-07-14T02:15:54.819Z,55.8
2018-07-14T02:16:45.215Z,55.8
2018-07-14T02:17:34.958Z,55.8
2018-07-14T02:18:24.777Z,55.8
2018-07-14T02:19:15.411Z,55.8
2018-07-14T02:20:04.897Z,55.8
2018-07-14T02:20:54.124Z,55.8
2018-07-14T02:21:45.606Z,55.7
2018-07-14T02:22:35.643Z,55.8
2018-07-14T02:23:25.526Z,55.8
2018-07-14T02:24:15.522Z,55.7
2018-07-14T02:25:05.835Z,55.7
2018-07-14T02:25:55.907Z,55.7
2018-07-14T02:26:45.702Z,55.7
2018-07-14T02:27:34.941Z,55.7
2018-07-14T02:28:25.812Z,55.6
2018-07-14T02:29:15.636Z,55.6
2018-07-14T02:30:06.303Z,55.6
2018-07-14T02:30:56.327Z,55.6
2018-07-14T02:31:46.155Z,55.6
2018-07-14T02:32:36.360Z,55.6
2018-07-14T02:33:26.245Z,55.6
2018-07-14T02:34:16.601Z,55.6
2018-07-14T02:35:06.678Z,55.6
2018-07-14T02:35:56.696Z,55.6
2018-07-14T02:36:46.478Z,55.6
2018-07-14T02:37:36.264Z,55.6
2018-07-14T02:38:26.339Z,55.6
2018-07-14T02:39:16.713Z,55.6
2018-07-14T02:40:06.468Z,55.6
2018-07-14T02:40:56.815Z,55.6
2018-07-14T02:41:46.581Z,55.5
2018-07-14T02:42:36.685Z,55.5
2018-07-14T02:43:27.033Z,55.5
2018-07-14T02:44:17.074Z,55.5
2018-07-14T02:45:07.189Z,55.5
2018-07-14T02:45:57.170Z,55.5
2018-07-14T02:46:47.025Z,55.5
2018-07-14T02:47:37.281Z,55.5
2018-07-14T02:48:27.680Z,55.5
2018-07-14T02:49:17.730Z,55.4
2018-07-14T02:50:07.514Z,55.4
2018-07-14T02:50:57.861Z,55.4
2018-07-14T02:51:47.630Z,55.4
2018-07-14T02:52:37.984Z,55.4
2018-07-14T02:53:27.765Z,55.4
2018-07-14T02:54:17.859Z,55.4
2018-07-14T02:55:08.155Z,55.4
2018-07-14T02:55:57.479Z,55.4
2018-07-14T02:56:47.763Z,55.4
2018-07-14T02:57:37.800Z,55.4
2018-07-14T02:58:28.431Z,55.4
2018-07-14T02:59:18.508Z,55.4
2018-07-14T03:00:08.570Z,55.3
2018-07-14T03:00:57.782Z,55.3
2018-07-14T03:01:48.152Z,55.4
2018-07-14T03:02:38.520Z,55.4
2018-07-14T03:03:28.301Z,55.3
2018-07-14T03:04:18.620Z,55.3
2018-07-14T03:05:08.416Z,55.3
2018-07-14T03:05:58.455Z,55.3
2018-07-14T03:06:48.488Z,55.3
2018-07-14T03:07:39.152Z,55.3
2018-07-14T03:08:28.652Z,55.3
2018-07-14T03:09:18.990Z,55.3
2018-07-14T03:10:08.545Z,55.3
2018-07-14T03:10:58.364Z,55.3
2018-07-14T03:11:48.195Z,55.3
2018-07-14T03:12:38.735Z,55.3
2018-07-14T03:13:28.866Z,55.3
2018-07-14T03:14:18.808Z,55.2
2018-07-14T03:15:08.930Z,55.2
2018-07-14T03:15:59.468Z,55.2
2018-07-14T03:16:49.034Z,55.2
2018-07-14T03:17:39.627Z,55.2
2018-07-14T03:18:29.128Z,55.2
2018-07-14T03:19:20.026Z,55.2
2018-07-14T03:20:09.813Z,55.2
2018-07-14T03:20:59.596Z,55.2
2018-07-14T03:21:50.252Z,55.2
2018-07-14T03:22:40.276Z,55.1
2018-07-14T03:23:30.054Z,55.1
2018-07-14T03:24:20.099Z,55.1
2018-07-14T03:25:10.828Z,55.1
2018-07-14T03:26:00.263Z,55.1
2018-07-14T03:26:50.598Z,55.1
2018-07-14T03:27:40.109Z,55.1
2018-07-14T03:28:30.710Z,55.1
2018-07-14T03:29:20.502Z,55.1
2018-07-14T03:30:10.875Z,55.1
2018-07-14T03:31:00.930Z,55.1
2018-07-14T03:31:51.012Z,55.1
2018-07-14T03:32:40.782Z,55.1
2018-07-14T03:33:30.527Z,55.1
2018-07-14T03:34:20.392Z,55.1
2018-07-14T03:35:10.735Z,55.1
2018-07-14T03:36:00.518Z,55.1
2018-07-14T03:36:51.198Z,55
2018-07-14T03:37:40.375Z,55
2018-07-14T03:38:30.687Z,55
2018-07-14T03:39:20.765Z,55
2018-07-14T03:40:11.342Z,55
2018-07-14T03:41:01.432Z,55
2018-07-14T03:41:51.527Z,54.9
2018-07-14T03:42:41.255Z,54.9
2018-07-14T03:43:32.055Z,54.9
2018-07-14T03:44:21.644Z,54.9
2018-07-14T03:45:11.174Z,54.9
2018-07-14T03:46:01.785Z,54.9
2018-07-14T03:46:52.112Z,54.9
2018-07-14T03:47:42.264Z,54.9
2018-07-14T03:48:31.957Z,54.9
2018-07-14T03:49:22.052Z,54.9
2018-07-14T03:50:12.124Z,54.9
2018-07-14T03:51:01.907Z,54.9
2018-07-14T03:51:51.952Z,54.9
2018-07-14T03:52:42.021Z,54.9
2018-07-14T03:53:32.082Z,54.9
2018-07-14T03:54:22.194Z,54.9
2018-07-14T03:55:12.809Z,54.8
2018-07-14T03:56:02.800Z,54.8
2018-07-14T03:56:52.667Z,54.8
2018-07-14T03:57:42.110Z,54.8
2018-07-14T03:58:32.763Z,54.8
2018-07-14T03:59:23.075Z,54.8
2018-07-14T04:00:13.188Z,54.8
2018-07-14T04:01:02.372Z,54.8
2018-07-14T04:01:52.423Z,54.8
2018-07-14T04:02:42.526Z,54.8
2018-07-14T04:03:32.900Z,54.8
2018-07-14T04:04:23.200Z,54.8
2018-07-14T04:05:13.198Z,54.8
2018-07-14T04:06:03.343Z,54.8
2018-07-14T04:06:53.694Z,54.8
2018-07-14T04:07:43.155Z,54.8
2018-07-14T04:08:33.750Z,54.8
2018-07-14T04:09:23.303Z,54.8
2018-07-14T04:10:13.341Z,54.8
2018-07-14T04:11:03.984Z,54.7
2018-07-14T04:11:53.726Z,54.7
2018-07-14T04:12:44.114Z,54.8
2018-07-14T04:13:33.980Z,54.7
2018-07-14T04:14:24.242Z,54.7
2018-07-14T04:15:14.019Z,54.6
2018-07-14T04:16:04.147Z,54.7
2018-07-14T04:16:53.928Z,54.7
2018-07-14T04:17:44.495Z,54.6
2018-07-14T04:18:34.074Z,54.7
2018-07-14T04:19:24.319Z,54.6
2018-07-14T04:20:13.862Z,54.6
2018-07-14T04:21:04.774Z,54.6
2018-07-14T04:21:54.526Z,54.6
2018-07-14T04:22:44.577Z,54.6
2018-07-14T04:23:34.953Z,54.6
2018-07-14T04:24:24.461Z,54.6
2018-07-14T04:25:14.796Z,54.6
2018-07-14T04:26:04.839Z,54.6
2018-07-14T04:26:54.961Z,54.6
2018-07-14T04:27:45.231Z,54.6
2018-07-14T04:28:35.041Z,54.6
2018-07-14T04:29:24.349Z,54.6
2018-07-14T04:30:14.884Z,54.6
2018-07-14T04:31:04.976Z,54.5
2018-07-14T04:31:54.903Z,54.6
2018-07-14T04:32:45.356Z,54.5
2018-07-14T04:33:35.164Z,54.5
2018-07-14T04:34:25.518Z,54.5
2018-07-14T04:35:15.547Z,54.5
2018-07-14T04:36:05.913Z,54.5
2018-07-14T04:36:55.673Z,54.5
2018-07-14T04:37:46.137Z,54.5
2018-07-14T04:38:35.803Z,54.5
2018-07-14T04:39:25.881Z,54.4
2018-07-14T04:40:15.478Z,54.4
2018-07-14T04:41:05.488Z,54.4
2018-07-14T04:41:55.504Z,54.4
2018-07-14T04:42:45.886Z,54.4
2018-07-14T04:43:36.480Z,54.4
2018-07-14T04:44:26.538Z,54.4
2018-07-14T04:45:16.306Z,54.4
2018-07-14T04:46:06.167Z,54.4
2018-07-14T04:46:56.202Z,54.4
2018-07-14T04:47:46.766Z,54.4
2018-07-14T04:48:36.897Z,54.4
2018-07-14T04:49:27.466Z,54.4
2018-07-14T04:50:16.707Z,54.4
2018-07-14T04:51:06.812Z,54.4
2018-07-14T04:51:57.103Z,54.4
2018-07-14T04:52:46.672Z,54.3
2018-07-14T04:53:37.000Z,54.3
2018-07-14T04:54:27.045Z,54.3
2018-07-14T04:55:16.818Z,54.3
2018-07-14T04:56:07.168Z,54.3
2018-07-14T04:56:57.257Z,54.3
2018-07-14T04:57:47.298Z,54.3
2018-07-14T04:58:36.863Z,54.3
2018-07-14T04:59:27.675Z,54.3
2018-07-14T05:00:17.466Z,54.3
2018-07-14T05:01:07.534Z,54.3
2018-07-14T05:01:57.887Z,54.3
2018-07-14T05:02:47.181Z,54.3
2018-07-14T05:03:37.983Z,54.3
2018-07-14T05:04:27.842Z,54.3
2018-07-14T05:05:17.836Z,54.3
2018-07-14T05:06:07.719Z,54.3
2018-07-14T05:06:58.256Z,54.3
2018-07-14T05:07:48.353Z,54.2
2018-07-14T05:08:38.135Z,54.2
2018-07-14T05:09:27.911Z,54.2
2018-07-14T05:10:18.279Z,54.2
2018-07-14T05:11:08.625Z,54.2
2018-07-14T05:11:58.394Z,54.2
2018-07-14T05:12:48.182Z,54.2
2018-07-14T05:13:38.267Z,54.1
2018-07-14T05:14:28.026Z,54.1
2018-07-14T05:15:18.637Z,54.1
2018-07-14T05:16:08.707Z,54.1
2018-07-14T05:16:58.501Z,54.1
2018-07-14T05:17:48.562Z,54.1
2018-07-14T05:18:38.968Z,54.1
2018-07-14T05:19:28.775Z,54.1
2018-07-14T05:20:19.034Z,54.1
2018-07-14T05:21:09.356Z,54.1
2018-07-14T05:21:58.655Z,54.1
2018-07-14T05:22:48.938Z,54.1
2018-07-14T05:23:38.717Z,54.1
2018-07-14T05:24:28.546Z,54.1
2018-07-14T05:25:19.665Z,54.1
2018-07-14T05:26:09.743Z,54.1
2018-07-14T05:26:59.783Z,54.1
2018-07-14T05:27:49.909Z,54
2018-07-14T05:28:40.194Z,54
2018-07-14T05:29:29.702Z,54
2018-07-14T05:30:20.059Z,54
2018-07-14T05:31:09.843Z,54
2018-07-14T05:31:59.365Z,54
2018-07-14T05:32:49.714Z,54
2018-07-14T05:33:40.020Z,54
2018-07-14T05:34:30.374Z,54
2018-07-14T05:35:20.458Z,54
2018-07-14T05:36:09.957Z,53.9
2018-07-14T05:37:00.269Z,53.9
2018-07-14T05:37:49.789Z,53.9
2018-07-14T05:38:40.424Z,53.9
2018-07-14T05:39:30.741Z,53.9
2018-07-14T05:40:20.525Z,53.9
2018-07-14T05:41:10.591Z,53.9
2018-07-14T05:42:00.425Z,53.9
2018-07-14T05:42:50.754Z,53.9
2018-07-14T05:43:41.110Z,53.9
2018-07-14T05:44:31.162Z,53.9
2018-07-14T05:45:21.247Z,53.9
2018-07-14T05:46:11.310Z,53.9
2018-07-14T05:46:59.951Z,53.9
2018-07-14T05:47:50.599Z,53.9
2018-07-14T05:48:41.187Z,53.9
2018-07-14T05:49:31.587Z,53.9
2018-07-14T05:50:21.657Z,53.9
2018-07-14T05:51:11.147Z,53.8
2018-07-14T05:52:01.681Z,53.8
2018-07-14T05:52:51.550Z,53.8
2018-07-14T05:53:41.619Z,53.8
2018-07-14T05:54:31.136Z,53.8
2018-07-14T05:55:21.788Z,53.8
2018-07-14T05:56:11.776Z,53.8
2018-07-14T05:57:01.621Z,53.8
2018-07-14T05:57:52.058Z,53.8
2018-07-14T05:58:42.020Z,53.8
2018-07-14T05:59:32.055Z,53.8
2018-07-14T06:00:22.091Z,53.8
2018-07-14T06:01:12.465Z,53.8
2018-07-14T06:02:02.515Z,53.8
2018-07-14T06:02:51.517Z,53.8
2018-07-14T06:03:42.368Z,53.8
2018-07-14T06:04:32.450Z,53.7
2018-07-14T06:05:22.347Z,53.8
2018-07-14T06:06:12.825Z,53.7
2018-07-14T06:07:02.926Z,53.7
2018-07-14T06:07:53.987Z,53.7
2018-07-14T06:08:42.748Z,53.7
2018-07-14T06:09:32.571Z,53.7
2018-07-14T06:10:22.983Z,53.7
2018-07-14T06:11:13.267Z,53.7
2018-07-14T06:12:02.997Z,53.6
2018-07-14T06:12:53.355Z,53.6
2018-07-14T06:13:43.444Z,53.6
2018-07-14T06:14:33.553Z,53.6
2018-07-14T06:15:23.253Z,53.6
2018-07-14T06:16:13.604Z,53.6
2018-07-14T06:17:03.663Z,53.6
2018-07-14T06:17:53.695Z,53.6
2018-07-14T06:18:43.808Z,53.6
2018-07-14T06:19:33.961Z,53.6
2018-07-14T06:20:23.384Z,53.6
2018-07-14T06:21:13.729Z,53.6
2018-07-14T06:22:03.812Z,53.6
2018-07-14T06:22:54.146Z,53.6
2018-07-14T06:23:43.957Z,53.6
2018-07-14T06:24:33.421Z,53.6
2018-07-14T06:25:24.385Z,53.6
2018-07-14T06:26:14.384Z,53.5
2018-07-14T06:27:04.215Z,53.5
2018-07-14T06:27:54.249Z,53.6
2018-07-14T06:28:44.577Z,53.5
2018-07-14T06:29:34.371Z,53.5
2018-07-14T06:30:24.418Z,53.5
2018-07-14T06:31:14.760Z,53.5
2018-07-14T06:32:04.717Z,53.5
2018-07-14T06:32:54.633Z,53.5
2018-07-14T06:33:44.966Z,53.4
2018-07-14T06:34:34.261Z,53.1
2018-07-14T06:35:24.804Z,52.9
2018-07-14T06:36:14.861Z,52.8
2018-07-14T06:37:04.981Z,52.8
2018-07-14T06:37:55.007Z,52.8
2018-07-14T06:38:45.967Z,52.7
2018-07-14T06:39:35.388Z,52.7
2018-07-14T06:40:25.449Z,52.6
2018-07-14T06:41:15.529Z,52.6
2018-07-14T06:42:05.630Z,52.6
2018-07-14T06:42:55.670Z,52.6
2018-07-14T06:43:45.431Z,52.6
2018-07-14T06:44:35.927Z,52.6
2018-07-14T06:45:25.839Z,52.6
2018-07-14T06:46:15.413Z,52.6
2018-07-14T06:47:05.470Z,52.6
2018-07-14T06:47:55.480Z,52.6
2018-07-14T06:48:46.134Z,52.5
2018-07-14T06:49:35.920Z,52.5
2018-07-14T06:50:25.694Z,52.5
2018-07-14T06:51:16.343Z,52.5
2018-07-14T06:52:05.820Z,52.4
2018-07-14T06:52:56.152Z,52.4
2018-07-14T06:53:45.932Z,52.4
2018-07-14T06:54:36.334Z,52.4
2018-07-14T06:55:25.814Z,52.4
2018-07-14T06:58:46.606Z,52.3
2018-07-14T06:59:36.694Z,52.3
2018-07-14T07:00:27.034Z,52.3
2018-07-14T07:01:16.246Z,52.3
2018-07-14T07:02:07.175Z,52.3
2018-07-14T07:03:47.039Z,52.3
2018-07-14T07:04:37.086Z,52.3
2018-07-14T07:05:26.863Z,52.3
2018-07-14T07:06:17.491Z,52.3
2018-07-14T07:07:07.014Z,52.3
2018-07-14T07:07:57.619Z,52.3
2018-07-14T07:08:47.745Z,52.3
2018-07-14T07:09:36.915Z,52.3
2018-07-14T07:10:27.649Z,52.3
2018-07-14T07:11:17.917Z,52.2
2018-07-14T07:12:07.338Z,52.2
2018-07-14T07:12:57.727Z,52.2
2018-07-14T07:13:48.464Z,52.2
2018-07-14T07:14:38.097Z,52.2
2018-07-14T07:15:27.928Z,52.2
2018-07-14T07:16:17.981Z,52.1
2018-07-14T07:17:08.013Z,52.1
2018-07-14T07:17:58.360Z,52.1
2018-07-14T07:18:48.402Z,52.1
2018-07-14T07:19:38.227Z,52.1
2018-07-14T07:20:28.331Z,52.1
2018-07-14T07:21:18.697Z,52.1
2018-07-14T07:22:08.113Z,52.1
2018-07-14T07:22:58.488Z,52.1
2018-07-14T07:23:48.251Z,52
2018-07-14T07:24:38.625Z,52
2018-07-14T07:25:28.952Z,52
2018-07-14T07:26:19.023Z,52
2018-07-14T07:27:09.037Z,52
2018-07-14T07:31:19.147Z,51.9
2018-07-14T07:32:09.490Z,51.9
2018-07-14T07:32:59.557Z,51.9
2018-07-14T07:34:40.491Z,52
2018-07-14T07:35:29.248Z,52.1
2018-07-14T07:36:19.632Z,52.1
2018-07-14T07:37:09.425Z,52.2
2018-07-14T07:37:59.940Z,52.2
2018-07-14T07:38:50.019Z,52.3
2018-07-14T07:39:39.502Z,52.3
2018-07-14T07:42:09.972Z,52.5
2018-07-14T07:43:00.327Z,52.5
2018-07-14T07:43:50.402Z,52.6
2018-07-14T07:44:40.462Z,52.6
2018-07-14T07:45:29.681Z,52.7
2018-07-14T07:46:20.317Z,52.8
2018-07-14T07:47:10.377Z,52.8
2018-07-14T07:48:00.431Z,52.8
2018-07-14T07:48:50.751Z,52.9
2018-07-14T07:49:40.830Z,52.9
2018-07-14T07:50:30.600Z,52.9
2018-07-14T07:51:20.974Z,53
2018-07-14T07:52:10.749Z,53
2018-07-14T07:53:00.516Z,53.1
2018-07-14T07:53:50.295Z,53.1
2018-07-14T07:54:41.250Z,53.1
2018-07-14T07:55:30.746Z,53.1
2018-07-14T07:56:21.304Z,53.1
2018-07-14T07:57:11.370Z,53.1
2018-07-14T07:58:00.338Z,53.1
2018-07-14T07:58:50.975Z,53.1
2018-07-14T07:59:41.285Z,53.1
2018-07-14T08:00:31.698Z,53.1
2018-07-14T08:01:21.154Z,53.1
2018-07-14T08:02:11.273Z,53
2018-07-14T08:03:01.552Z,53
2018-07-14T08:03:51.636Z,53
2018-07-14T08:04:42.006Z,53
2018-07-14T08:05:31.506Z,53
2018-07-14T08:06:21.537Z,53
2018-07-14T08:07:11.912Z,53
2018-07-14T08:08:01.749Z,53
2018-07-14T08:08:51.746Z,53
2018-07-14T08:09:42.101Z,53
2018-07-14T08:10:31.945Z,52.9
2018-07-14T08:11:21.950Z,52.9
2018-07-14T08:12:12.364Z,52.9
2018-07-14T08:13:02.394Z,52.9
2018-07-14T08:13:51.866Z,53
2018-07-14T08:14:42.771Z,53.1
2018-07-14T08:15:32.514Z,53.1
2018-07-14T08:16:22.896Z,53.1
2018-07-14T08:17:12.966Z,53.1
2018-07-14T08:18:02.464Z,53.1
2018-07-14T08:18:52.796Z,53.1
2018-07-14T08:19:43.153Z,53.1
2018-07-14T08:20:33.055Z,53.1
2018-07-14T08:21:22.986Z,53.1
2018-07-14T08:22:13.341Z,53.1
2018-07-14T08:23:03.887Z,53.1
2018-07-14T08:23:53.000Z,53.1
2018-07-14T08:24:43.231Z,53.1
2018-07-14T08:25:33.639Z,53.1
2018-07-14T08:26:23.669Z,53.1
2018-07-14T08:27:13.444Z,53.1
2018-07-14T08:28:03.778Z,53.2
2018-07-14T08:28:53.554Z,53.2
2018-07-14T08:29:43.665Z,53.2
2018-07-14T08:30:34.027Z,53.1
2018-07-14T08:31:24.072Z,53.2
2018-07-14T08:32:13.628Z,53.1
2018-07-14T08:33:03.359Z,53.1
2018-07-14T08:33:53.967Z,53.2
2018-07-14T08:34:44.049Z,53.1
2018-07-14T08:35:34.129Z,53.1
2018-07-14T08:36:24.463Z,53.1
2018-07-14T08:37:14.199Z,53.1
2018-07-14T08:38:03.930Z,53.1
2018-07-14T08:38:54.631Z,53.1
2018-07-14T08:39:44.742Z,53.1
2018-07-14T08:40:34.758Z,53.1
2018-07-14T08:41:24.353Z,53.1
2018-07-14T08:42:14.902Z,53.1
2018-07-14T08:43:04.700Z,53.1
2018-07-14T08:43:55.758Z,53.1
2018-07-14T08:44:44.795Z,53.1
2018-07-14T08:45:35.130Z,53.1
2018-07-14T08:46:25.219Z,53.1
2018-07-14T08:47:14.991Z,53
2018-07-14T08:48:05.079Z,53.1
2018-07-14T08:48:55.101Z,53.1
2018-07-14T08:49:44.718Z,53
2018-07-14T08:50:36.360Z,53
2018-07-14T08:51:25.126Z,53
2018-07-14T08:52:15.185Z,53
2018-07-14T08:53:05.228Z,53
2018-07-14T08:53:54.755Z,53
2018-07-14T08:54:44.251Z,52.9
2018-07-14T08:55:35.451Z,52.9
2018-07-14T08:56:25.228Z,52.8
2018-07-14T08:57:15.025Z,52.8
2018-07-14T08:58:04.695Z,52.8
2018-07-14T08:58:55.427Z,52.8
2018-07-14T08:59:46.344Z,52.8
2018-07-14T09:00:36.061Z,52.8
2018-07-14T09:01:26.075Z,52.8
2018-07-14T09:02:16.407Z,52.8
2018-07-14T09:03:06.204Z,52.8
2018-07-14T09:03:56.279Z,52.8
2018-07-14T09:04:46.618Z,52.8
2018-07-14T09:05:36.408Z,52.8
2018-07-14T09:06:26.194Z,52.8
2018-07-14T09:07:16.797Z,52.8
2018-07-14T09:08:06.859Z,52.8
2018-07-14T09:08:56.664Z,52.7
2018-07-14T09:09:46.988Z,52.7
2018-07-14T09:10:37.051Z,52.7
2018-07-14T09:11:26.568Z,52.7
2018-07-14T09:12:16.684Z,52.7
2018-07-14T09:13:07.273Z,52.7
2018-07-14T09:13:57.295Z,52.7
2018-07-14T09:14:47.084Z,52.7
2018-07-14T09:15:37.423Z,52.6
2018-07-14T09:16:27.725Z,52.7
2018-07-14T09:17:17.585Z,52.7
2018-07-14T09:18:07.632Z,52.6
2018-07-14T09:18:57.717Z,52.6
2018-07-14T09:19:46.975Z,52.6
2018-07-14T09:20:37.358Z,52.6
2018-07-14T09:21:27.069Z,52.6
2018-07-14T09:22:17.452Z,52.6
2018-07-14T09:23:07.213Z,52.5
2018-07-14T09:23:57.615Z,52.5
2018-07-14T09:24:47.638Z,52.5
2018-07-14T09:25:37.963Z,52.5
2018-07-14T09:26:27.736Z,52.6
2018-07-14T09:27:17.533Z,52.6
2018-07-14T09:28:07.683Z,52.6
2018-07-14T09:28:57.693Z,52.7
2018-07-14T09:29:48.096Z,52.7
2018-07-14T09:30:38.072Z,52.8
2018-07-14T09:31:27.637Z,52.8
2018-07-14T09:32:18.553Z,52.8
2018-07-14T09:33:08.521Z,52.8
2018-07-14T09:33:58.348Z,52.9
2018-07-14T09:34:48.959Z,52.9
2018-07-14T09:35:39.026Z,52.9
2018-07-14T09:36:29.042Z,52.9
2018-07-14T09:37:18.840Z,52.9
2018-07-14T09:38:09.568Z,52.9
2018-07-14T09:38:58.977Z,52.9
2018-07-14T09:39:49.042Z,52.9
2018-07-14T09:40:38.546Z,52.9
2018-07-14T09:41:28.861Z,52.9
2018-07-14T09:42:19.217Z,52.9
2018-07-14T09:43:09.590Z,52.9
2018-07-14T09:44:00.065Z,52.9
2018-07-14T09:44:49.460Z,52.9
2018-07-14T09:45:39.215Z,52.9
2018-07-14T09:46:29.322Z,52.9
2018-07-14T09:47:19.081Z,52.9
2018-07-14T09:48:10.006Z,52.9
2018-07-14T09:49:00.034Z,52.9
2018-07-14T09:49:49.420Z,52.9
2018-07-14T09:50:39.411Z,52.9
2018-07-14T09:51:29.483Z,52.9
2018-07-14T09:52:19.581Z,52.9
2018-07-14T09:53:08.856Z,52.9
2018-07-14T09:53:59.925Z,52.8
2018-07-14T09:54:49.729Z,52.8
2018-07-14T09:55:39.493Z,52.8
2018-07-14T09:56:29.894Z,52.9
2018-07-14T09:57:19.430Z,53
2018-07-14T09:58:09.692Z,53.1
2018-07-14T09:59:00.596Z,53.2
2018-07-14T09:59:50.614Z,53.3
2018-07-14T10:00:40.365Z,53.3
2018-07-14T10:01:30.967Z,53.4
2018-07-14T10:02:20.788Z,53.4
2018-07-14T10:03:11.112Z,53.5
2018-07-14T10:04:00.610Z,53.6
2018-07-14T10:04:50.987Z,53.7
2018-07-14T10:05:41.026Z,53.9
2018-07-14T10:06:30.399Z,53.9
2018-07-14T10:07:20.623Z,54.1
2018-07-14T10:08:11.257Z,54.2
2018-07-14T10:09:01.604Z,54.3
2018-07-14T10:09:51.442Z,54.4
2018-07-14T10:10:41.715Z,54.5
2018-07-14T10:11:31.312Z,54.6
2018-07-14T10:12:21.875Z,54.7
2018-07-14T10:13:11.688Z,54.8
2018-07-14T10:14:01.516Z,54.9
2018-07-14T10:14:51.865Z,55.1
2018-07-14T10:15:40.795Z,55.1
2018-07-14T10:16:31.649Z,55.3
2018-07-14T10:17:22.962Z,55.3
2018-07-14T10:18:12.280Z,55.4
2018-07-14T10:19:02.339Z,55.4
2018-07-14T10:19:51.952Z,55.6
2018-07-14T10:20:42.619Z,55.6
2018-07-14T10:21:32.058Z,55.8
2018-07-14T10:22:23.306Z,55.8
2018-07-14T10:23:12.779Z,55.9
2018-07-14T10:24:02.267Z,56
2018-07-14T10:24:52.568Z,56.1
2018-07-14T10:25:44.715Z,56.1
2018-07-14T10:26:32.476Z,56.3
2018-07-14T10:27:22.445Z,56.4
2018-07-14T10:28:13.106Z,56.4
2018-07-14T10:29:03.057Z,56.6
2018-07-14T10:29:52.966Z,56.6
2018-07-14T10:30:42.709Z,56.7
2018-07-14T10:31:33.347Z,56.8
2018-07-14T10:32:22.896Z,56.8
2018-07-14T10:33:13.461Z,56.9
2018-07-14T10:34:03.791Z,56.9
2018-07-14T10:34:53.408Z,57
2018-07-14T10:35:43.715Z,57
2018-07-14T10:36:33.436Z,57.1
2018-07-14T10:37:23.813Z,57.1
2018-07-14T10:38:13.587Z,57.1
2018-07-14T10:39:03.676Z,57.1
2018-07-14T10:39:53.246Z,57.1
2018-07-14T10:40:43.522Z,57.1
2018-07-14T10:41:33.634Z,57.2
2018-07-14T10:42:23.666Z,57.2
2018-07-14T10:43:13.424Z,57.2
2018-07-14T10:44:04.075Z,57.1
2018-07-14T10:44:53.570Z,57.1
2018-07-14T10:45:44.197Z,57.1
2018-07-14T10:46:34.271Z,57.1
2018-07-14T10:47:24.642Z,57.1
2018-07-14T10:48:14.139Z,57.1
2018-07-14T10:49:04.180Z,57.1
2018-07-14T10:49:54.752Z,57
2018-07-14T10:50:43.414Z,57.1
2018-07-14T10:51:34.138Z,57
2018-07-14T10:52:24.402Z,57.1
2018-07-14T10:53:14.764Z,57
2018-07-14T10:54:04.819Z,57
2018-07-14T10:54:55.222Z,57
2018-07-14T10:55:45.242Z,57
2018-07-14T10:56:34.501Z,57
2018-07-14T10:57:24.797Z,56.9
2018-07-14T10:58:15.365Z,56.9
2018-07-14T10:59:05.207Z,56.9
2018-07-14T10:59:55.239Z,56.9
2018-07-14T11:00:45.561Z,56.9
2018-07-14T11:01:35.634Z,56.9
2018-07-14T11:02:25.703Z,56.9
2018-07-14T11:03:15.763Z,56.9
2018-07-14T11:04:05.822Z,56.9
2018-07-14T11:04:55.656Z,56.9
2018-07-14T11:05:45.991Z,56.9
2018-07-14T11:06:35.665Z,56.8
2018-07-14T11:07:26.098Z,56.8
2018-07-14T11:08:16.149Z,56.7
2018-07-14T11:09:05.671Z,56.6
2018-07-14T11:09:56.006Z,56.6
2018-07-14T11:10:46.358Z,56.7
2018-07-14T11:11:36.135Z,56.7
2018-07-14T11:12:26.216Z,56.8
2018-07-14T11:13:16.286Z,56.8
2018-07-14T11:14:06.047Z,56.9
2018-07-14T11:14:56.091Z,56.9
2018-07-14T11:15:46.468Z,56.9
2018-07-14T11:16:35.778Z,56.9
2018-07-14T11:17:26.310Z,56.9
2018-07-14T11:18:16.489Z,56.9
2018-07-14T11:19:06.984Z,56.9